| time (UTC) | temp C | wind direction | speed KPH | gust KPH | rain 1hr cm | rain 24hr cm | rain mn cm | humidity % | barometer mb |
| 20260906133800 | 28 | 284 | 0.0 | 0.0 | 0.00 | 0.00 | 0.00 | 85 | 1012.3 |
| 20260906133255 | 28 | 284 | 0.0 | 0.0 | 0.00 | 0.00 | 0.00 | 85 | 1012.2 |
| 20260906132751 | 27 | 224 | 1.6 | 3.2 | 0.00 | 0.00 | 0.00 | 85 | 1012.1 |
| 20260906132245 | 27 | 239 | 1.6 | 1.6 | 0.00 | 0.00 | 0.00 | 86 | 1012.2 |
| 20260906131741 | 27 | 277 | 0.0 | 1.6 | 0.00 | 0.00 | 0.00 | 86 | 1012.2 |
| 20260906131236 | 27 | 192 | 1.6 | 1.6 | 0.00 | 0.00 | 0.00 | 85 | 1012.3 |
| 20260906130732 | 27 | 165 | 3.2 | 4.8 | 0.00 | 0.00 | 0.00 | 86 | 1012.4 |
| 20260906130226 | 27 | 219 | 1.6 | 1.6 | 0.00 | 0.00 | 0.00 | 87 | 1012.3 |
| 20260906125725 | 27 | 224 | 1.6 | 1.6 | 0.00 | 0.00 | 0.00 | 87 | 1012.2 |
| 20260906125224 | 27 | 170 | 1.6 | 1.6 | 0.00 | 0.00 | 0.00 | 88 | 1012.4 |
| 20260906124723 | 27 | 208 | 1.6 | 1.6 | 0.00 | 0.00 | 0.00 | 89 | 1012.4 |
| 20260906124219 | 26 | 248 | 1.6 | 1.6 | 0.00 | 0.00 | 0.00 | 90 | 1012.2 |
| 20260906123718 | 26 | 204 | 3.2 | 3.2 | 0.00 | 0.00 | 0.00 | 90 | 1012.2 |
| 20260906123214 | 26 | 273 | 0.0 | 1.6 | 0.00 | 0.00 | 0.00 | 91 | 1012.0 |
| 20260906122713 | 26 | 222 | 6.4 | 6.4 | 0.00 | 0.00 | 0.00 | 91 | 1011.9 |
| 20260906122208 | 26 | 196 | 6.4 | 6.4 | 0.00 | 0.00 | 0.00 | 92 | 1011.9 |
| 20260906121705 | 25 | 226 | 1.6 | 1.6 | 0.00 | 0.00 | 0.00 | 93 | 1012.0 |
| 20260906121200 | 25 | 237 | 4.8 | 4.8 | 0.00 | 0.00 | 0.00 | 94 | 1012.0 |
| 20260906120656 | 25 | 200 | 4.8 | 4.8 | 0.00 | 0.00 | 0.00 | 94 | 1011.8 |
| 20260906120154 | 25 | 209 | 1.6 | 1.6 | 0.00 | 0.00 | 0.00 | 94 | 1012.1 |
| 20260906115653 | 25 | 232 | 3.2 | 3.2 | 0.00 | 0.00 | 0.00 | 95 | 1012.0 |
| 20260906115149 | 25 | 192 | 1.6 | 1.6 | 0.00 | 0.00 | 0.00 | 95 | 1012.1 |
| 20260906114647 | 25 | 227 | 0.0 | 0.0 | 0.00 | 0.00 | 0.00 | 95 | 1012.5 |
| 20260906114144 | 25 | 207 | 1.6 | 1.6 | 0.00 | 0.00 | 0.00 | 95 | 1012.4 |
| 20260906113643 | 25 | 207 | 1.6 | 1.6 | 0.00 | 0.00 | 0.00 | 95 | 1012.4 |
| 20260906113143 | 25 | 197 | 0.0 | 1.6 | 0.00 | 0.00 | 0.00 | 94 | 1012.5 |
| 20260906112642 | 25 | 205 | 3.2 | 3.2 | 0.00 | 0.00 | 0.00 | 94 | 1012.2 |
| 20260906112140 | 25 | 227 | 0.0 | 0.0 | 0.00 | 0.00 | 0.00 | 94 | 1012.3 |
| 20260906111639 | 25 | 220 | 3.2 | 3.2 | 0.00 | 0.00 | 0.00 | 94 | 1012.2 |
| 20260906111134 | 25 | 233 | 3.2 | 1.6 | 0.00 | 0.00 | 0.00 | 94 | 1012.0 |
| 20260906110629 | 25 | 199 | 1.6 | 1.6 | 0.00 | 0.00 | 0.00 | 94 | 1012.0 |
| 20260906110129 | 25 | 230 | 4.8 | 4.8 | 0.00 | 0.00 | 0.00 | 95 | 1011.6 |
| 20260906105624 | 25 | 206 | 3.2 | 3.2 | 0.00 | 0.00 | 0.00 | 94 | 1011.5 |
| 20260906105120 | 25 | 221 | 1.6 | 1.6 | 0.00 | 0.00 | 0.00 | 95 | 1011.6 |
| 20260906104619 | 25 | 210 | 1.6 | 1.6 | 0.00 | 0.00 | 0.00 | 95 | 1011.5 |
| 20260906104113 | 25 | 230 | 1.6 | 1.6 | 0.00 | 0.00 | 0.00 | 95 | 1011.2 |
| 20260906103612 | 25 | 213 | 3.2 | 3.2 | 0.00 | 0.00 | 0.00 | 95 | 1011.2 |
| 20260906103107 | 25 | 238 | 1.6 | 1.6 | 0.00 | 0.00 | 0.00 | 94 | 1011.3 |
| 20260906102607 | 25 | 226 | 1.6 | 1.6 | 0.00 | 0.00 | 0.00 | 94 | 1011.2 |
| 20260906102103 | 25 | 215 | 1.6 | 1.6 | 0.00 | 0.00 | 0.00 | 94 | 1011.1 |
| 20260906101603 | 25 | 214 | 1.6 | 1.6 | 0.00 | 0.00 | 0.00 | 94 | 1011.2 |
| 20260906101102 | 25 | 214 | 1.6 | 1.6 | 0.00 | 0.00 | 0.00 | 94 | 1011.1 |
| 20260906100559 | 25 | 215 | 1.6 | 1.6 | 0.00 | 0.00 | 0.00 | 94 | 1011.2 |
| 20260906100059 | 25 | 245 | 1.6 | 1.6 | 0.00 | 0.00 | 0.00 | 93 | 1011.3 |
| 20260906095558 | 25 | 222 | 1.6 | 1.6 | 0.00 | 0.00 | 0.00 | 93 | 1011.1 |
| 20260906095054 | 25 | 202 | 0.0 | 0.0 | 0.00 | 0.00 | 0.00 | 93 | 1011.0 |
| 20260906094553 | 25 | 198 | 4.8 | 4.8 | 0.00 | 0.00 | 0.00 | 93 | 1010.9 |
| 20260906094049 | 25 | 206 | 1.6 | 3.2 | 0.00 | 0.00 | 0.00 | 92 | 1011.1 |
| 20260906093544 | 26 | 230 | 3.2 | 4.8 | 0.00 | 0.00 | 0.00 | 92 | 1011.0 |
| 20260906093039 | 26 | 175 | 3.2 | 4.8 | 0.00 | 0.00 | 0.00 | 92 | 1011.0 |
| 20260906092534 | 26 | 213 | 3.2 | 3.2 | 0.00 | 0.00 | 0.00 | 92 | 1010.8 |
| 20260906092030 | 26 | 242 | 6.4 | 6.4 | 0.00 | 0.00 | 0.00 | 92 | 1010.9 |
| 20260906091525 | 26 | 215 | 1.6 | 1.6 | 0.00 | 0.00 | 0.00 | 92 | 1010.8 |
| 20260906091022 | 26 | 208 | 4.8 | 4.8 | 0.00 | 0.00 | 0.00 | 92 | 1010.9 |
| 20260906090521 | 26 | 211 | 6.4 | 6.4 | 0.00 | 0.00 | 0.00 | 91 | 1011.0 |
| 20260906090016 | 26 | 180 | 3.2 | 3.2 | 0.00 | 0.00 | 0.00 | 91 | 1010.9 |
| 20260906085515 | 26 | 209 | 1.6 | 1.6 | 0.00 | 0.00 | 0.00 | 91 | 1010.9 |
| 20260906085016 | 26 | 245 | 3.2 | 3.2 | 0.00 | 0.00 | 0.00 | 90 | 1010.9 |
| 20260906084515 | 26 | 196 | 3.2 | 3.2 | 0.00 | 0.00 | 0.00 | 90 | 1010.7 |
| 20260906084014 | 26 | 194 | 1.6 | 1.6 | 0.00 | 0.00 | 0.00 | 90 | 1010.9 |
| 20260906083510 | 26 | 187 | 3.2 | 3.2 | 0.00 | 0.00 | 0.00 | 90 | 1010.9 |
| 20260906083009 | 26 | 199 | 1.6 | 1.6 | 0.00 | 0.00 | 0.00 | 90 | 1010.8 |
| 20260906082505 | 26 | 202 | 3.2 | 1.6 | 0.00 | 0.00 | 0.00 | 90 | 1011.0 |
| 20260906082000 | 26 | 199 | 0.0 | 0.0 | 0.00 | 0.00 | 0.00 | 90 | 1010.7 |
| 20260906081456 | 26 | 199 | 0.0 | 0.0 | 0.00 | 0.00 | 0.00 | 90 | 1010.8 |
| 20260906080951 | 26 | 193 | 1.6 | 1.6 | 0.00 | 0.00 | 0.00 | 89 | 1010.9 |
| 20260906080449 | 26 | 208 | 3.2 | 3.2 | 0.00 | 0.00 | 0.00 | 89 | 1010.8 |
| 20260906075948 | 26 | 223 | 1.6 | 1.6 | 0.00 | 0.00 | 0.00 | 89 | 1010.9 |
| 20260906075443 | 26 | 243 | 1.6 | 3.2 | 0.00 | 0.00 | 0.00 | 89 | 1011.1 |
| 20260906074939 | 26 | 227 | 1.6 | 3.2 | 0.00 | 0.00 | 0.00 | 89 | 1010.9 |
| 20260906074439 | 26 | 193 | 1.6 | 1.6 | 0.00 | 0.00 | 0.00 | 89 | 1010.8 |
| 20260906073937 | 26 | 166 | 3.2 | 3.2 | 0.00 | 0.00 | 0.00 | 88 | 1011.0 |
| 20260906073432 | 26 | 214 | 1.6 | 1.6 | 0.00 | 0.00 | 0.00 | 88 | 1011.0 |
| 20260906072928 | 26 | 227 | 1.6 | 1.6 | 0.00 | 0.00 | 0.00 | 88 | 1011.1 |
| 20260906072424 | 26 | 226 | 1.6 | 3.2 | 0.00 | 0.00 | 0.00 | 88 | 1011.0 |
| 20260906071920 | 26 | 198 | 3.2 | 4.8 | 0.00 | 0.00 | 0.00 | 88 | 1010.9 |
| 20260906071415 | 26 | 230 | 3.2 | 4.8 | 0.00 | 0.00 | 0.00 | 88 | 1011.2 |
| 20260906070911 | 26 | 176 | 4.8 | 4.8 | 0.00 | 0.00 | 0.00 | 88 | 1011.0 |
| 20260906070407 | 26 | 194 | 1.6 | 1.6 | 0.00 | 0.00 | 0.00 | 88 | 1011.1 |
| 20260906065902 | 26 | 193 | 4.8 | 4.8 | 0.00 | 0.00 | 0.00 | 88 | 1010.9 |
| 20260906065356 | 26 | 214 | 3.2 | 3.2 | 0.00 | 0.00 | 0.00 | 88 | 1011.0 |
| 20260906064853 | 26 | 244 | 4.8 | 4.8 | 0.00 | 0.00 | 0.00 | 88 | 1011.0 |
| 20260906064349 | 26 | 157 | 4.8 | 6.4 | 0.00 | 0.00 | 0.00 | 88 | 1011.0 |
| 20260906063848 | 26 | 213 | 4.8 | 4.8 | 0.00 | 0.00 | 0.00 | 89 | 1011.1 |
| 20260906063344 | 26 | 209 | 4.8 | 4.8 | 0.00 | 0.00 | 0.00 | 89 | 1011.1 |
| 20260906062838 | 26 | 224 | 3.2 | 3.2 | 0.00 | 0.00 | 0.00 | 89 | 1011.0 |
| 20260906062338 | 26 | 225 | 3.2 | 3.2 | 0.00 | 0.00 | 0.00 | 89 | 1010.9 |
| 20260906061833 | 26 | 211 | 4.8 | 4.8 | 0.00 | 0.00 | 0.00 | 89 | 1011.4 |
| 20260906061330 | 26 | 217 | 1.6 | 3.2 | 0.00 | 0.00 | 0.00 | 89 | 1011.3 |
| 20260906060824 | 26 | 206 | 3.2 | 3.2 | 0.00 | 0.00 | 0.00 | 89 | 1011.2 |
| 20260906060322 | 26 | 217 | 3.2 | 3.2 | 0.00 | 0.00 | 0.00 | 88 | 1011.4 |
| 20260906055818 | 27 | 246 | 4.8 | 4.8 | 0.00 | 0.00 | 0.00 | 88 | 1011.1 |
| 20260906055313 | 27 | 204 | 6.4 | 6.4 | 0.00 | 0.00 | 0.00 | 88 | 1011.3 |
| 20260906054808 | 27 | 213 | 4.8 | 4.8 | 0.00 | 0.00 | 0.00 | 88 | 1011.5 |
| 20260906054303 | 27 | 216 | 3.2 | 3.2 | 0.00 | 0.00 | 0.00 | 88 | 1011.5 |
| 20260906053800 | 27 | 213 | 4.8 | 4.8 | 0.00 | 0.00 | 0.00 | 88 | 1011.7 |
| 20260906053255 | 27 | 209 | 3.2 | 3.2 | 0.00 | 0.00 | 0.00 | 87 | 1011.7 |
| 20260906052750 | 27 | 231 | 4.8 | 6.4 | 0.00 | 0.00 | 0.00 | 87 | 1011.7 |
| 20260906052246 | 27 | 201 | 3.2 | 3.2 | 0.00 | 0.00 | 0.00 | 88 | 1011.7 |
| 20260906051743 | 27 | 201 | 3.2 | 4.8 | 0.00 | 0.00 | 0.00 | 88 | 1011.6 |
| 20260906051243 | 27 | 220 | 3.2 | 3.2 | 0.00 | 0.00 | 0.00 | 89 | 1011.7 |
| 20260906050738 | 27 | 227 | 3.2 | 3.2 | 0.00 | 0.00 | 0.00 | 89 | 1011.7 |
| 20260906050233 | 27 | 252 | 4.8 | 4.8 | 0.00 | 0.00 | 0.00 | 89 | 1011.8 |
| 20260906045732 | 27 | 200 | 4.8 | 4.8 | 0.00 | 0.00 | 0.00 | 89 | 1011.8 |
| 20260906045227 | 27 | 235 | 4.8 | 4.8 | 0.00 | 0.00 | 0.00 | 90 | 1011.7 |
| 20260906044723 | 27 | 227 | 3.2 | 3.2 | 0.00 | 0.00 | 0.00 | 90 | 1011.6 |
| 20260906044218 | 27 | 220 | 3.2 | 3.2 | 0.00 | 0.00 | 0.00 | 90 | 1011.8 |
| 20260906043714 | 27 | 212 | 4.8 | 4.8 | 0.00 | 0.00 | 0.00 | 90 | 1011.6 |
| 20260906043210 | 27 | 232 | 3.2 | 3.2 | 0.00 | 0.00 | 0.00 | 90 | 1011.7 |
| 20260906042709 | 27 | 234 | 3.2 | 1.6 | 0.00 | 0.00 | 0.00 | 90 | 1011.6 |
| 20260906042208 | 27 | 221 | 1.6 | 1.6 | 0.00 | 0.00 | 0.00 | 90 | 1011.6 |
| 20260906041704 | 27 | 247 | 4.8 | 4.8 | 0.00 | 0.00 | 0.00 | 90 | 1011.8 |
| 20260906041205 | 27 | 215 | 3.2 | 4.8 | 0.00 | 0.00 | 0.00 | 90 | 1011.7 |
| 20260906040700 | 27 | 225 | 3.2 | 3.2 | 0.00 | 0.00 | 0.00 | 90 | 1011.7 |
| 20260906040155 | 27 | 208 | 3.2 | 3.2 | 0.00 | 0.00 | 0.00 | 90 | 1012.0 |
| 20260906035651 | 27 | 197 | 3.2 | 3.2 | 0.00 | 0.00 | 0.00 | 90 | 1012.0 |
| 20260906035147 | 27 | 227 | 3.2 | 3.2 | 0.00 | 0.00 | 0.00 | 90 | 1011.9 |
| 20260906034641 | 27 | 254 | 3.2 | 3.2 | 0.00 | 0.00 | 0.00 | 89 | 1011.8 |
| 20260906034136 | 27 | 219 | 3.2 | 3.2 | 0.00 | 0.00 | 0.00 | 89 | 1011.8 |
| 20260906033632 | 27 | 236 | 3.2 | 1.6 | 0.00 | 0.00 | 0.00 | 89 | 1012.3 |
| 20260906033132 | 27 | 211 | 3.2 | 3.2 | 0.00 | 0.00 | 0.00 | 88 | 1012.1 |
| 20260906032629 | 27 | 219 | 4.8 | 4.8 | 0.00 | 0.00 | 0.00 | 88 | 1012.3 |
| 20260906032128 | 27 | 214 | 4.8 | 4.8 | 0.00 | 0.00 | 0.00 | 88 | 1012.4 |
| 20260906031623 | 27 | 213 | 3.2 | 3.2 | 0.00 | 0.00 | 0.00 | 88 | 1012.4 |
| 20260906031119 | 27 | 208 | 1.6 | 1.6 | 0.00 | 0.00 | 0.00 | 87 | 1012.6 |
| 20260906030618 | 27 | 216 | 1.6 | 3.2 | 0.00 | 0.00 | 0.00 | 87 | 1012.5 |
| 20260906030114 | 27 | 222 | 3.2 | 3.2 | 0.00 | 0.00 | 0.00 | 87 | 1012.4 |
| 20260906025613 | 27 | 237 | 3.2 | 3.2 | 0.00 | 0.00 | 0.00 | 87 | 1012.5 |
| 20260906025112 | 27 | 232 | 0.0 | 0.0 | 0.00 | 0.00 | 0.00 | 87 | 1012.6 |
| 20260906024607 | 27 | 237 | 3.2 | 3.2 | 0.00 | 0.00 | 0.00 | 87 | 1012.4 |
| 20260906024101 | 27 | 214 | 3.2 | 3.2 | 0.00 | 0.00 | 0.00 | 87 | 1012.6 |
| 20260906023557 | 27 | 222 | 0.0 | 0.0 | 0.00 | 0.00 | 0.00 | 87 | 1012.7 |
| 20260906023051 | 27 | 225 | 3.2 | 3.2 | 0.00 | 0.00 | 0.00 | 86 | 1012.5 |
| 20260906022547 | 27 | 221 | 0.0 | 0.0 | 0.00 | 0.00 | 0.00 | 86 | 1012.5 |
| 20260906022042 | 27 | 221 | 0.0 | 1.6 | 0.00 | 0.00 | 0.00 | 86 | 1012.5 |
| 20260906021538 | 27 | 230 | 1.6 | 1.6 | 0.00 | 0.00 | 0.00 | 86 | 1012.4 |
| 20260906021037 | 27 | 230 | 1.6 | 1.6 | 0.00 | 0.00 | 0.00 | 86 | 1012.4 |
| 20260906020537 | 27 | 232 | 3.2 | 3.2 | 0.00 | 0.00 | 0.00 | 86 | 1012.2 |
| 20260906020036 | 27 | 220 | 1.6 | 3.2 | 0.00 | 0.00 | 0.00 | 87 | 1012.3 |
| 20260906015535 | 27 | 158 | 0.0 | 0.0 | 0.00 | 0.00 | 0.00 | 88 | 1012.4 |
| 20260906015029 | 27 | 158 | 0.0 | 0.0 | 0.00 | 0.00 | 0.00 | 88 | 1012.1 |
| 20260906014524 | 27 | 158 | 0.0 | 0.0 | 0.00 | 0.00 | 0.00 | 88 | 1012.3 |
| 20260906014020 | 27 | 158 | 0.0 | 0.0 | 0.00 | 0.00 | 0.00 | 87 | 1012.2 |
| 20260906013515 | 27 | 158 | 0.0 | 0.0 | 0.00 | 0.00 | 0.00 | 87 | 1012.0 |
| 20260906013011 | 27 | 158 | 0.0 | 0.0 | 0.00 | 0.00 | 0.00 | 87 | 1011.9 |
| 20260906012506 | 27 | 158 | 0.0 | 0.0 | 0.00 | 0.00 | 0.00 | 87 | 1011.7 |
| 20260906012006 | 27 | 158 | 0.0 | 0.0 | 0.00 | 0.00 | 0.00 | 87 | 1011.7 |
| 20260906011502 | 27 | 158 | 0.0 | 0.0 | 0.00 | 0.00 | 0.00 | 86 | 1011.7 |
| 20260906010956 | 27 | 158 | 0.0 | 0.0 | 0.00 | 0.00 | 0.00 | 85 | 1011.6 |
| 20260906010452 | 27 | 158 | 0.0 | 0.0 | 0.00 | 0.00 | 0.00 | 85 | 1011.5 |
| 20260906005948 | 27 | 162 | 0.0 | 1.6 | 0.00 | 0.00 | 0.00 | 85 | 1011.4 |
| 20260906005447 | 27 | 240 | 3.2 | 3.2 | 0.00 | 0.00 | 0.00 | 86 | 1011.2 |
| 20260906004946 | 27 | 239 | 0.0 | 0.0 | 0.00 | 0.00 | 0.00 | 87 | 1011.2 |
| 20260906004445 | 27 | 239 | 0.0 | 0.0 | 0.00 | 0.00 | 0.00 | 87 | 1011.4 |
| 20260906003941 | 27 | 239 | 0.0 | 0.0 | 0.00 | 0.00 | 0.00 | 86 | 1011.3 |
| 20260906003441 | 27 | 239 | 0.0 | 0.0 | 0.00 | 0.00 | 0.00 | 85 | 1011.4 |
| 20260906002937 | 27 | 239 | 0.0 | 0.0 | 0.00 | 0.00 | 0.00 | 84 | 1011.2 |
| 20260906002436 | 27 | 242 | 1.6 | 1.6 | 0.00 | 0.00 | 0.00 | 84 | 1011.2 |
| 20260906001931 | 28 | 217 | 3.2 | 1.6 | 0.00 | 0.00 | 0.00 | 84 | 1011.2 |
| 20260906001428 | 28 | 182 | 1.6 | 0.0 | 0.00 | 0.00 | 0.00 | 84 | 1011.1 |
| 20260906000922 | 28 | 199 | 0.0 | 0.0 | 0.00 | 0.00 | 0.00 | 83 | 1010.9 |
| 20260906000412 | 28 | 242 | 0.0 | 0.0 | 0.00 | 0.00 | 0.00 | 83 | 1010.9 |
| 20260905235907 | 28 | 180 | 0.0 | 0.0 | 0.00 | 0.00 | 0.00 | 83 | 1010.8 |
| 20260905235401 | 28 | 236 | 1.6 | 1.6 | 0.00 | 0.00 | 0.00 | 82 | 1010.9 |
| 20260905234856 | 28 | 230 | 3.2 | 3.2 | 0.00 | 0.00 | 0.00 | 82 | 1011.1 |
| 20260905234352 | 28 | 233 | 1.6 | 1.6 | 0.00 | 0.00 | 0.00 | 81 | 1010.9 |
| 20260905233847 | 28 | 245 | 1.6 | 3.2 | 0.00 | 0.00 | 0.00 | 80 | 1010.9 |
| 20260905233341 | 28 | 163 | 0.0 | 1.6 | 0.00 | 0.00 | 0.00 | 80 | 1011.0 |
| 20260905232841 | 29 | 171 | 1.6 | 1.6 | 0.00 | 0.00 | 0.00 | 79 | 1010.9 |
| 20260905232337 | 29 | 224 | 0.0 | 0.0 | 0.00 | 0.00 | 0.00 | 79 | 1010.9 |
| 20260905231833 | 29 | 195 | 0.0 | 0.0 | 0.00 | 0.00 | 0.00 | 78 | 1011.0 |
| 20260905231332 | 29 | 206 | 0.0 | 1.6 | 0.00 | 0.00 | 0.00 | 78 | 1010.9 |
| 20260905230829 | 30 | 217 | 0.0 | 0.0 | 0.00 | 0.00 | 0.00 | 79 | 1010.9 |
| 20260905230326 | 30 | 217 | 0.0 | 0.0 | 0.00 | 0.00 | 0.00 | 80 | 1010.8 |
| 20260905225826 | 30 | 273 | 0.0 | 0.0 | 0.00 | 0.00 | 0.00 | 79 | 1011.0 |
| 20260905225322 | 30 | 246 | 0.0 | 0.0 | 0.00 | 0.00 | 0.00 | 80 | 1011.4 |
| 20260905224821 | 30 | 247 | 0.0 | 0.0 | 0.00 | 0.00 | 0.00 | 80 | 1011.1 |
| 20260905224317 | 30 | 247 | 0.0 | 0.0 | 0.00 | 0.00 | 0.00 | 79 | 1011.2 |
| 20260905223812 | 30 | 247 | 0.0 | 0.0 | 0.00 | 0.00 | 0.00 | 79 | 1011.4 |
| 20260905223310 | 30 | 231 | 3.2 | 3.2 | 0.00 | 0.00 | 0.00 | 78 | 1011.1 |
| 20260905222804 | 30 | 209 | 1.6 | 1.6 | 0.00 | 0.00 | 0.00 | 79 | 1011.2 |
| 20260905222306 | 30 | 179 | 0.0 | 0.0 | 0.00 | 0.00 | 0.00 | 79 | 1011.5 |
| 20260905221800 | 30 | 211 | 0.0 | 0.0 | 0.00 | 0.00 | 0.00 | 79 | 1011.3 |
| 20260905221256 | 30 | 156 | 1.6 | 3.2 | 0.00 | 0.00 | 0.00 | 78 | 1011.4 |
| 20260905220752 | 30 | 217 | 0.0 | 1.6 | 0.00 | 0.00 | 0.00 | 79 | 1011.4 |
| 20260905220248 | 30 | 171 | 1.6 | 1.6 | 0.00 | 0.00 | 0.00 | 79 | 1011.4 |
| 20260905215747 | 30 | 253 | 0.0 | 0.0 | 0.00 | 0.00 | 0.00 | 80 | 1011.5 |
| 20260905215243 | 30 | 166 | 0.0 | 0.0 | 0.00 | 0.00 | 0.00 | 79 | 1011.4 |
| 20260905214738 | 31 | 164 | 1.6 | 1.6 | 0.00 | 0.00 | 0.00 | 78 | 1011.4 |
| 20260905214234 | 31 | 130 | 1.6 | 3.2 | 0.00 | 0.00 | 0.00 | 77 | 1011.7 |
| 20260905213729 | 32 | 162 | 1.6 | 1.6 | 0.00 | 0.00 | 0.00 | 74 | 1011.7 |
| 20260905213225 | 33 | 158 | 1.6 | 1.6 | 0.00 | 0.00 | 0.00 | 70 | 1011.5 |
| 20260905212720 | 33 | 204 | 1.6 | 1.6 | 0.00 | 0.00 | 0.00 | 60 | 1011.5 |
| 20260905212220 | 33 | 224 | 1.6 | 1.6 | 0.00 | 0.00 | 0.00 | 62 | 1011.7 |
| 20260905211719 | 32 | 227 | 0.0 | 0.0 | 0.00 | 0.00 | 0.00 | 63 | 1011.9 |
| 20260905211214 | 32 | 205 | 0.0 | 0.0 | 0.00 | 0.00 | 0.00 | 63 | 1011.8 |
| 20260905210712 | 32 | 216 | 1.6 | 1.6 | 0.00 | 0.00 | 0.00 | 62 | 1011.5 |
| 20260905210212 | 32 | 221 | 3.2 | 3.2 | 0.00 | 0.00 | 0.00 | 62 | 1011.5 |
| 20260905205710 | 33 | 254 | 4.8 | 4.8 | 0.00 | 0.00 | 0.00 | 62 | 1011.4 |
| 20260905205211 | 33 | 228 | 0.0 | 0.0 | 0.00 | 0.00 | 0.00 | 62 | 1011.4 |
| 20260905204710 | 33 | 166 | 3.2 | 3.2 | 0.00 | 0.00 | 0.00 | 62 | 1011.3 |
| 20260905204206 | 33 | 199 | 8.0 | 9.7 | 0.00 | 0.00 | 0.00 | 61 | 1011.2 |
| 20260905203706 | 33 | 207 | 8.0 | 9.7 | 0.00 | 0.00 | 0.00 | 59 | 1011.3 |
| 20260905203201 | 34 | 298 | 6.4 | 6.4 | 0.00 | 0.00 | 0.00 | 59 | 1011.5 |
| 20260905202657 | 34 | 182 | 3.2 | 3.2 | 0.00 | 0.00 | 0.00 | 57 | 1011.2 |
| 20260905202152 | 33 | 200 | 1.6 | 1.6 | 0.00 | 0.00 | 0.00 | 60 | 1011.2 |
| 20260905201648 | 33 | 199 | 3.2 | 3.2 | 0.00 | 0.00 | 0.00 | 60 | 1011.2 |
| 20260905201147 | 33 | 185 | 6.4 | 6.4 | 0.00 | 0.00 | 0.00 | 62 | 1011.6 |
| 20260905200642 | 33 | 252 | 1.6 | 3.2 | 0.00 | 0.00 | 0.00 | 63 | 1011.3 |
| 20260905200138 | 33 | 223 | 8.0 | 11.3 | 0.00 | 0.00 | 0.00 | 62 | 1011.2 |
| 20260905195636 | 33 | 202 | 4.8 | 4.8 | 0.00 | 0.00 | 0.00 | 63 | 1011.3 |
| 20260905195132 | 33 | 267 | 3.2 | 4.8 | 0.00 | 0.00 | 0.00 | 62 | 1011.2 |
| 20260905194632 | 33 | 201 | 4.8 | 4.8 | 0.00 | 0.00 | 0.00 | 60 | 1011.5 |
| 20260905194131 | 33 | 219 | 4.8 | 6.4 | 0.00 | 0.00 | 0.00 | 59 | 1011.3 |
| 20260905193626 | 33 | 184 | 6.4 | 6.4 | 0.00 | 0.00 | 0.00 | 60 | 1011.5 |
| 20260905193121 | 32 | 224 | 1.6 | 1.6 | 0.00 | 0.00 | 0.00 | 65 | 1011.7 |
| 20260905192617 | 33 | 245 | 8.0 | 11.3 | 0.00 | 0.00 | 0.00 | 62 | 1011.7 |
| 20260905192113 | 33 | 213 | 1.6 | 3.2 | 0.00 | 0.00 | 0.00 | 63 | 1011.9 |
| 20260905191612 | 33 | 287 | 6.4 | 6.4 | 0.00 | 0.00 | 0.00 | 63 | 1012.1 |
| 20260905191110 | 33 | 226 | 4.8 | 4.8 | 0.00 | 0.00 | 0.00 | 63 | 1012.1 |
| 20260905190609 | 33 | 225 | 6.4 | 6.4 | 0.00 | 0.00 | 0.00 | 64 | 1012.0 |
| 20260905185602 | 32 | 173 | 4.8 | 4.8 | 0.00 | 0.00 | 0.00 | 62 | 1012.1 |
| 20260905185102 | 32 | 265 | 1.6 | 1.6 | 0.00 | 0.00 | 0.00 | 64 | 1012.0 |
| 20260905184556 | 33 | 265 | 3.2 | 3.2 | 0.00 | 0.00 | 0.00 | 61 | 1012.2 |
| 20260905184056 | 33 | 224 | 3.2 | 4.8 | 0.00 | 0.00 | 0.00 | 62 | 1012.2 |
| 20260905183555 | 32 | 246 | 1.6 | 3.2 | 0.00 | 0.00 | 0.00 | 63 | 1012.2 |
| 20260905183050 | 32 | 317 | 6.4 | 6.4 | 0.00 | 0.00 | 0.00 | 64 | 1012.3 |
| 20260905182544 | 32 | 256 | 3.2 | 3.2 | 0.00 | 0.00 | 0.00 | 69 | 1012.5 |
| 20260905182045 | 32 | 221 | 1.6 | 1.6 | 0.00 | 0.00 | 0.00 | 68 | 1012.6 |
| 20260905181544 | 32 | 207 | 0.0 | 1.6 | 0.00 | 0.00 | 0.00 | 67 | 1012.7 |
| 20260905181039 | 31 | 286 | 4.8 | 3.2 | 0.00 | 0.00 | 0.00 | 66 | 1012.7 |
| 20260905180539 | 31 | 290 | 6.4 | 6.4 | 0.00 | 0.00 | 0.00 | 69 | 1012.8 |
| 20260905180034 | 31 | 321 | 3.2 | 6.4 | 0.00 | 0.00 | 0.00 | 70 | 1012.7 |
| 20260905175533 | 32 | 325 | 6.4 | 9.7 | 0.00 | 0.00 | 0.00 | 68 | 1012.9 |
| 20260905175024 | 32 | 174 | 3.2 | 3.2 | 0.00 | 0.00 | 0.00 | 68 | 1012.9 |
| 20260905174519 | 32 | 180 | 1.6 | 1.6 | 0.00 | 0.00 | 0.00 | 68 | 1013.1 |
| 20260905174015 | 32 | 191 | 8.0 | 11.3 | 0.00 | 0.00 | 0.00 | 67 | 1013.1 |
| 20260905173511 | 32 | 250 | 6.4 | 9.7 | 0.00 | 0.00 | 0.00 | 66 | 1013.1 |
| 20260905173006 | 32 | 287 | 3.2 | 4.8 | 0.00 | 0.00 | 0.00 | 67 | 1013.2 |
| 20260905172504 | 32 | 310 | 8.0 | 9.7 | 0.00 | 0.00 | 0.00 | 69 | 1013.2 |
| 20260905171959 | 32 | 221 | 0.0 | 0.0 | 0.00 | 0.00 | 0.00 | 68 | 1013.0 |
| 20260905171455 | 31 | 189 | 11.3 | 12.9 | 0.00 | 0.00 | 0.00 | 69 | 1013.3 |
| 20260905170951 | 31 | 264 | 3.2 | 3.2 | 0.00 | 0.00 | 0.00 | 71 | 1013.4 |
| 20260905170448 | 31 | 324 | 4.8 | 4.8 | 0.00 | 0.00 | 0.00 | 73 | 1013.3 |
| 20260905165942 | 31 | 327 | 6.4 | 6.4 | 0.00 | 0.00 | 0.00 | 72 | 1013.7 |
| 20260905165437 | 31 | 314 | 4.8 | 6.4 | 0.00 | 0.00 | 0.00 | 71 | 1013.7 |
| 20260905164932 | 31 | 331 | 6.4 | 6.4 | 0.00 | 0.00 | 0.00 | 70 | 1013.8 |
| 20260905164432 | 30 | 189 | 3.2 | 4.8 | 0.00 | 0.00 | 0.00 | 72 | 1014.1 |
| 20260905163926 | 30 | 328 | 9.7 | 11.3 | 0.00 | 0.00 | 0.00 | 73 | 1014.1 |
| 20260905163423 | 30 | 171 | 3.2 | 4.8 | 0.00 | 0.00 | 0.00 | 74 | 1014.4 |
| 20260905162919 | 31 | 349 | 6.4 | 9.7 | 0.00 | 0.00 | 0.00 | 74 | 1014.3 |
| 20260905162414 | 31 | 189 | 6.4 | 9.7 | 0.00 | 0.00 | 0.00 | 73 | 1014.1 |
| 20260905161908 | 30 | 191 | 4.8 | 4.8 | 0.00 | 0.00 | 0.00 | 76 | 1014.4 |
| 20260905161408 | 30 | 321 | 6.4 | 6.4 | 0.00 | 0.00 | 0.00 | 78 | 1014.4 |
| 20260905160906 | 30 | 331 | 6.4 | 6.4 | 0.00 | 0.00 | 0.00 | 76 | 1014.6 |
| 20260905160400 | 30 | 298 | 3.2 | 3.2 | 0.00 | 0.00 | 0.00 | 77 | 1014.7 |
| 20260905155855 | 29 | 184 | 3.2 | 3.2 | 0.00 | 0.00 | 0.00 | 79 | 1014.8 |
| 20260905155354 | 29 | 291 | 3.2 | 3.2 | 0.00 | 0.00 | 0.00 | 81 | 1014.9 |
| 20260905154853 | 30 | 309 | 4.8 | 4.8 | 0.00 | 0.00 | 0.00 | 80 | 1014.8 |
| 20260905154349 | 29 | 246 | 4.8 | 4.8 | 0.00 | 0.00 | 0.00 | 80 | 1015.1 |
| 20260905153844 | 28 | 221 | 3.2 | 3.2 | 0.00 | 0.00 | 0.00 | 83 | 1015.0 |
| 20260905153341 | 28 | 307 | 3.2 | 3.2 | 0.00 | 0.00 | 0.00 | 82 | 1015.0 |
| 20260905152840 | 29 | 204 | 9.7 | 12.9 | 0.00 | 0.00 | 0.00 | 82 | 1015.2 |
| 20260905152340 | 28 | 210 | 3.2 | 3.2 | 0.00 | 0.00 | 0.00 | 83 | 1015.0 |
| 20260905151835 | 28 | 253 | 8.0 | 11.3 | 0.00 | 0.00 | 0.00 | 82 | 1015.0 |
| 20260905151331 | 28 | 290 | 3.2 | 3.2 | 0.00 | 0.00 | 0.00 | 84 | 1015.1 |
| 20260905150830 | 28 | 230 | 4.8 | 4.8 | 0.00 | 0.00 | 0.00 | 85 | 1015.1 |
| 20260905150325 | 28 | 217 | 8.0 | 11.3 | 0.00 | 0.00 | 0.00 | 84 | 1014.9 |
| 20260905145823 | 28 | 262 | 1.6 | 1.6 | 0.00 | 0.00 | 0.00 | 84 | 1015.0 |
| 20260905145322 | 28 | 225 | 1.6 | 1.6 | 0.00 | 0.00 | 0.00 | 85 | 1014.9 |
| 20260905144821 | 28 | 217 | 1.6 | 1.6 | 0.00 | 0.00 | 0.00 | 86 | 1015.0 |
| 20260905144317 | 28 | 235 | 0.0 | 0.0 | 0.00 | 0.00 | 0.00 | 86 | 1014.9 |
| 20260905143816 | 28 | 217 | 3.2 | 3.2 | 0.00 | 0.00 | 0.00 | 85 | 1015.1 |
| 20260905143310 | 28 | 283 | 1.6 | 3.2 | 0.00 | 0.00 | 0.00 | 87 | 1015.0 |
| 20260905142809 | 27 | 217 | 3.2 | 3.2 | 0.00 | 0.00 | 0.00 | 88 | 1014.7 |
| 20260905142305 | 27 | 211 | 3.2 | 3.2 | 0.00 | 0.00 | 0.00 | 87 | 1014.9 |
| 20260905141800 | 27 | 200 | 1.6 | 1.6 | 0.00 | 0.00 | 0.00 | 88 | 1014.8 |
| 20260905141255 | 27 | 183 | 1.6 | 3.2 | 0.00 | 0.00 | 0.00 | 91 | 1015.0 |
| 20260905140751 | 27 | 275 | 3.2 | 3.2 | 0.00 | 0.00 | 0.00 | 91 | 1015.0 |
| 20260905140250 | 26 | 206 | 0.0 | 0.0 | 0.00 | 0.00 | 0.00 | 92 | 1015.0 |
| 20260905135749 | 26 | 207 | 1.6 | 1.6 | 0.00 | 0.00 | 0.00 | 92 | 1015.0 |
| 20260905135246 | 26 | 179 | 0.0 | 0.0 | 0.00 | 0.00 | 0.00 | 93 | 1015.0 |
| 20260905134745 | 26 | 173 | 0.0 | 0.0 | 0.00 | 0.00 | 0.00 | 93 | 1014.8 |
| 20260905134244 | 26 | 213 | 4.8 | 4.8 | 0.00 | 0.00 | 0.00 | 93 | 1015.0 |